Time;durP1;ratioP1;P1;durP2;ratioP2;P2;SDS_P1;SDS_P2;PMS_P1;PMS_P2;Temp;Humidity;BMP_temperature;BMP_pressure;BME280_temperature;BME280_humidity;BME280_pressure;Samples;Min_cycle;Max_cycle;Signal;HPM_P1;HPM_P2
2021/11/01 00:02:08;;;;;;;0.50;0.50;;;12.00;99.90;;;;;;5061296;28;20056;-73
2021/11/01 00:04:33;;;;;;;1.17;0.63;;;12.10;99.90;;;;;;5061062;28;20056;-72
2021/11/01 00:06:59;;;;;;;1.38;0.50;;;12.00;99.90;;;;;;5062303;28;20045;-73
2021/11/01 00:09:28;;;;;;;5.28;0.80;;;12.00;99.90;;;;;;5045806;28;20025;-72
2021/11/01 00:11:54;;;;;;;3.35;0.70;;;12.00;99.90;;;;;;5040520;28;20731;-71
2021/11/01 00:14:20;;;;;;;6.63;1.02;;;12.00;99.90;;;;;;5042587;28;20021;-74
2021/11/01 00:16:46;;;;;;;7.68;1.48;;;11.90;99.90;;;;;;5042433;28;20033;-74
2021/11/01 00:19:11;;;;;;;2.05;0.82;;;11.90;99.90;;;;;;5042290;28;20025;-74
2021/11/01 00:21:37;;;;;;;2.42;0.52;;;11.90;99.90;;;;;;5042294;28;20033;-74
2021/11/01 00:24:03;;;;;;;7.15;1.80;;;11.90;99.90;;;;;;5042150;28;20030;-73
2021/11/01 00:26:28;;;;;;;2.33;1.05;;;11.90;99.90;;;;;;5040385;28;20150;-72
2021/11/01 00:28:54;;;;;;;6.00;1.17;;;11.80;99.90;;;;;;5040866;28;20045;-73
2021/11/01 00:31:20;;;;;;;20.42;1.15;;;11.70;99.90;;;;;;5041918;28;20600;-74
2021/11/01 00:33:47;;;;;;;26.02;2.00;;;11.80;99.90;;;;;;5041982;28;20029;-74
2021/11/01 00:36:13;;;;;;;7.50;2.03;;;11.80;99.90;;;;;;5043989;28;20145;-75
2021/11/01 00:38:39;;;;;;;4.85;1.77;;;11.80;99.90;;;;;;5045841;28;20091;-74
2021/11/01 00:41:05;;;;;;;21.88;2.28;;;11.90;99.90;;;;;;5045368;28;20521;-73
2021/11/01 00:43:30;;;;;;;12.95;1.60;;;11.90;99.90;;;;;;5045062;28;20048;-73
2021/11/01 00:45:56;;;;;;;2.50;1.75;;;11.80;99.90;;;;;;5045744;28;20032;-74
2021/11/01 00:48:21;;;;;;;10.50;2.75;;;11.80;99.90;;;;;;5045149;28;20518;-73
2021/11/01 00:50:48;;;;;;;2.03;1.23;;;11.80;99.90;;;;;;5045713;28;20021;-75
2021/11/01 00:53:15;;;;;;;5.50;1.60;;;11.80;99.90;;;;;;5046367;28;20655;-75
2021/11/01 00:55:51;;;;;;;7.18;2.15;;;11.80;99.90;;;;;;5045821;28;20017;-73
2021/11/01 00:58:20;;;;;;;9.73;1.48;;;11.80;99.90;;;;;;5045566;28;20018;-75
2021/11/01 01:00:46;;;;;;;8.75;1.67;;;11.80;99.90;;;;;;5043882;28;20120;-74
2021/11/01 01:03:13;;;;;;;5.45;1.50;;;11.70;99.90;;;;;;5045446;28;20056;-74
2021/11/01 01:05:44;;;;;;;10.75;0.88;;;11.70;99.90;;;;;;5045219;28;20029;-73
2021/11/01 01:08:14;;;;;;;9.27;1.77;;;11.70;99.90;;;;;;5045330;28;20037;-74
2021/11/01 01:10:43;;;;;;;15.18;1.30;;;11.70;99.90;;;;;;5045256;28;20026;-73
2021/11/01 01:13:11;;;;;;;2.08;1.17;;;11.70;99.90;;;;;;5052159;28;20037;-74
2021/11/01 01:15:40;;;;;;;2.03;0.80;;;11.60;99.90;;;;;;5065004;28;20025;-72
2021/11/01 01:18:13;;;;;;;12.32;2.25;;;11.60;99.90;;;;;;5065016;28;20033;-73
2021/11/01 01:20:39;;;;;;;3.03;0.80;;;11.60;99.90;;;;;;5065551;28;20023;-73
2021/11/01 01:23:05;;;;;;;10.80;1.38;;;11.60;99.90;;;;;;5064411;28;20029;-74
2021/11/01 01:25:38;;;;;;;7.50;1.17;;;11.60;99.90;;;;;;5063463;28;20456;-74
2021/11/01 01:28:04;;;;;;;11.57;0.95;;;11.50;99.90;;;;;;5064794;28;20101;-74
2021/11/01 01:30:30;;;;;;;9.27;1.42;;;11.50;99.90;;;;;;5064728;28;20033;-72
2021/11/01 01:32:56;;;;;;;7.07;2.05;;;11.50;99.90;;;;;;5064660;28;20025;-74
2021/11/01 01:35:22;;;;;;;5.43;2.00;;;11.50;99.90;;;;;;5064441;28;20568;-72
2021/11/01 01:37:52;;;;;;;6.30;1.67;;;11.40;99.90;;;;;;5064506;28;20363;-74
2021/11/01 01:40:18;;;;;;;7.13;1.77;;;11.40;99.90;;;;;;5064485;28;20079;-71
2021/11/01 01:42:44;;;;;;;10.85;2.22;;;11.40;99.90;;;;;;5064787;28;20048;-72
2021/11/01 01:45:12;;;;;;;7.45;1.90;;;11.40;99.90;;;;;;5064484;28;20104;-72
2021/11/01 01:47:41;;;;;;;8.50;1.67;;;11.40;99.90;;;;;;5060094;28;20022;-72
2021/11/01 01:50:09;;;;;;;9.70;1.33;;;11.40;99.90;;;;;;5044585;28;20051;-73
2021/11/01 01:52:34;;;;;;;13.85;2.38;;;11.40;99.90;;;;;;5044245;28;20030;-72
2021/11/01 01:55:00;;;;;;;8.00;1.67;;;11.40;99.90;;;;;;5044429;28;20112;-73
2021/11/01 01:57:26;;;;;;;8.60;1.67;;;11.30;99.90;;;;;;5044150;28;20049;-73
2021/11/01 01:59:53;;;;;;;7.75;2.90;;;11.30;99.90;;;;;;5044335;28;20022;-74
2021/11/01 02:02:19;;;;;;;8.30;2.45;;;11.30;99.90;;;;;;5044313;28;20022;-73
2021/11/01 02:04:45;;;;;;;10.70;1.80;;;11.30;99.90;;;;;;5042432;28;20017;-74
2021/11/01 02:07:36;;;;;;;10.73;1.75;;;11.20;99.90;;;;;;5044068;28;20533;-73
2021/11/01 02:10:08;;;;;;;11.95;2.47;;;11.20;99.90;;;;;;5043991;28;20034;-71
2021/11/01 02:12:51;;;;;;;9.32;2.47;;;11.20;99.90;;;;;;5043874;28;20026;-72
2021/11/01 02:15:25;;;;;;;9.18;2.45;;;11.20;99.90;;;;;;5043836;28;20027;-71
2021/11/01 02:17:55;;;;;;;5.68;1.63;;;11.10;99.90;;;;;;5067172;28;20104;-72
2021/11/01 02:21:05;;;;;;;15.75;2.78;;;11.10;99.90;;;;;;5054877;28;20038;-72
2021/11/01 02:23:47;;;;;;;6.35;1.90;;;11.10;99.90;;;;;;5054594;28;20045;-73
2021/11/01 02:26:16;;;;;;;2.78;1.45;;;11.10;99.90;;;;;;5084047;28;20108;-73
2021/11/01 02:28:44;;;;;;;6.15;2.13;;;11.00;99.90;;;;;;5082130;28;20074;-73
2021/11/01 02:31:12;;;;;;;7.35;2.58;;;11.00;99.90;;;;;;5083693;28;20497;-73
2021/11/01 02:33:40;;;;;;;16.83;1.88;;;11.00;99.90;;;;;;5083404;28;20119;-73
2021/11/01 02:36:06;;;;;;;5.63;2.15;;;10.90;99.90;;;;;;5082559;28;20676;-72
2021/11/01 02:38:32;;;;;;;13.25;2.58;;;10.90;99.90;;;;;;5083166;28;20781;-73
2021/11/01 02:41:04;;;;;;;6.50;2.28;;;10.90;99.90;;;;;;5082914;28;20033;-73
2021/11/01 02:43:29;;;;;;;14.73;3.63;;;10.90;99.90;;;;;;5081752;28;20032;-72
2021/11/01 02:45:59;;;;;;;9.02;3.10;;;10.90;99.90;;;;;;5083196;28;20031;-73
2021/11/01 02:48:25;;;;;;;11.43;2.92;;;10.90;99.90;;;;;;5082902;28;20036;-73
2021/11/01 02:50:51;;;;;;;6.88;1.75;;;10.80;99.90;;;;;;5082961;28;20028;-76
2021/11/01 02:53:17;;;;;;;8.45;1.92;;;10.90;99.90;;;;;;5083014;28;20050;-73
2021/11/01 02:55:43;;;;;;;7.32;2.25;;;10.80;99.90;;;;;;5083235;28;20024;-74
2021/11/01 02:58:09;;;;;;;10.10;1.80;;;10.80;99.90;;;;;;5082797;28;20126;-74
2021/11/01 03:00:35;;;;;;;23.95;2.53;;;10.70;99.90;;;;;;5081659;28;20033;-72
2021/11/01 03:03:05;;;;;;;9.82;2.05;;;10.80;99.90;;;;;;5081945;28;20028;-73
2021/11/01 03:05:33;;;;;;;12.25;2.85;;;10.70;99.90;;;;;;5082813;28;20456;-72
2021/11/01 03:08:04;;;;;;;8.27;2.08;;;10.70;99.90;;;;;;5082734;28;20024;-74
2021/11/01 03:10:30;;;;;;;4.72;1.83;;;10.70;99.90;;;;;;5082782;28;20196;-71
2021/11/01 03:12:56;;;;;;;6.15;1.95;;;10.70;99.90;;;;;;5082840;28;20017;-72
2021/11/01 03:15:25;;;;;;;8.80;2.35;;;10.70;99.90;;;;;;5083024;28;20025;-72
2021/11/01 03:18:01;;;;;;;4.18;2.25;;;10.70;99.90;;;;;;5082971;28;20033;-72
2021/11/01 03:20:30;;;;;;;7.65;2.45;;;10.70;99.90;;;;;;5082805;28;20528;-73
2021/11/01 03:23:04;;;;;;;8.30;1.77;;;10.70;99.90;;;;;;5082106;28;20071;-72
2021/11/01 03:25:34;;;;;;;6.28;1.33;;;10.70;99.90;;;;;;5082507;28;20708;-70
2021/11/01 03:28:02;;;;;;;11.75;2.63;;;10.70;99.90;;;;;;5081257;28;20501;-72
2021/11/01 03:30:30;;;;;;;13.80;2.65;;;10.60;99.90;;;;;;5082391;28;20136;-73
2021/11/01 03:32:57;;;;;;;13.05;2.33;;;10.60;99.90;;;;;;5082721;28;20103;-73
2021/11/01 03:35:25;;;;;;;8.85;2.17;;;10.60;99.90;;;;;;5082394;28;20091;-73
2021/11/01 03:37:54;;;;;;;7.78;2.13;;;10.60;99.90;;;;;;5082645;28;20039;-73
2021/11/01 03:40:21;;;;;;;9.93;2.22;;;10.60;99.90;;;;;;5081270;28;20042;-73
2021/11/01 03:42:49;;;;;;;7.68;1.95;;;10.60;99.90;;;;;;5082841;28;20013;-74
2021/11/01 03:45:15;;;;;;;6.70;1.38;;;10.60;99.90;;;;;;5081397;28;20025;-73
2021/11/01 03:47:44;;;;;;;11.10;2.42;;;10.60;99.90;;;;;;5082869;28;20032;-73
2021/11/01 03:50:32;;;;;;;8.60;2.15;;;10.60;99.90;;;;;;5082581;28;20170;-74
2021/11/01 03:52:59;;;;;;;6.35;2.17;;;10.50;99.90;;;;;;5082462;28;20408;-73
2021/11/01 03:55:29;;;;;;;7.78;1.63;;;10.50;99.90;;;;;;5082536;28;20128;-73
2021/11/01 03:57:56;;;;;;;6.10;1.98;;;10.50;99.90;;;;;;5082577;28;20036;-73
2021/11/01 04:00:24;;;;;;;12.75;2.17;;;10.50;99.90;;;;;;5079260;28;20040;-73
2021/11/01 04:02:50;;;;;;;7.22;1.50;;;10.50;99.90;;;;;;5042397;28;20022;-74
2021/11/01 04:05:16;;;;;;;16.17;2.72;;;10.50;99.90;;;;;;5042213;28;20018;-73
2021/11/01 04:07:44;;;;;;;4.45;1.67;;;10.50;99.90;;;;;;5042528;28;20542;-74
2021/11/01 04:10:10;;;;;;;7.63;1.98;;;10.50;99.90;;;;;;5044160;28;20103;-74
2021/11/01 04:12:37;;;;;;;9.77;2.45;;;10.50;99.90;;;;;;5046688;28;20385;-73
2021/11/01 04:15:11;;;;;;;3.15;1.75;;;10.40;99.90;;;;;;5046039;28;20089;-74
2021/11/01 04:22:47;;;;;;;5.90;2.60;;;10.40;99.90;;;;;;5066297;28;20473;-74
2021/11/01 04:25:13;;;;;;;7.68;1.98;;;10.40;99.90;;;;;;5066048;28;20083;-73
2021/11/01 04:27:39;;;;;;;4.50;1.65;;;10.40;99.90;;;;;;5065288;28;20048;-73
2021/11/01 04:30:06;;;;;;;8.75;2.20;;;10.40;99.90;;;;;;5064643;28;20055;-74
2021/11/01 04:32:40;;;;;;;8.73;3.45;;;10.40;99.90;;;;;;5065900;28;20145;-73
2021/11/01 04:35:29;;;;;;;10.88;2.40;;;10.40;99.90;;;;;;5065948;28;20024;-74
2021/11/01 04:38:12;;;;;;;8.32;1.90;;;10.40;99.90;;;;;;5065609;28;20362;-74
2021/11/01 04:53:54;;;;;;;6.03;2.72;;;10.40;99.90;;;;;;5066430;28;20479;-75
2021/11/01 04:56:25;;;;;;;6.05;2.75;;;10.40;99.90;;;;;;5066884;28;20032;-73
2021/11/01 04:58:56;;;;;;;23.58;3.50;;;10.30;99.90;;;;;;5067191;28;20163;-75
2021/11/01 05:01:27;;;;;;;8.25;2.33;;;10.30;99.90;;;;;;5066878;28;20129;-73
2021/11/01 05:03:56;;;;;;;4.13;1.92;;;10.30;99.90;;;;;;5066955;28;20017;-72
2021/11/01 05:06:23;;;;;;;10.70;3.13;;;10.30;99.90;;;;;;5066618;28;20025;-77
2021/11/01 05:09:01;;;;;;;6.22;2.67;;;10.30;99.90;;;;;;5065230;28;20025;-72
2021/11/01 05:13:55;;;;;;;8.95;2.75;;;10.30;99.90;;;;;;5046666;28;20088;-71
2021/11/01 05:16:34;;;;;;;9.93;1.75;;;10.20;99.90;;;;;;5046570;28;20030;-73
2021/11/01 05:19:05;;;;;;;5.03;2.05;;;10.20;99.90;;;;;;5045317;28;20044;-74
2021/11/01 05:24:24;;;;;;;6.85;2.80;;;10.20;99.90;;;;;;5046649;28;20497;-73
2021/11/01 05:29:34;;;;;;;15.45;3.53;;;10.20;99.90;;;;;;5046665;28;20155;-73
2021/11/01 05:32:13;;;;;;;4.43;2.42;;;10.20;99.90;;;;;;5046300;28;20037;-73
2021/11/01 05:34:40;;;;;;;8.63;2.35;;;10.20;99.90;;;;;;5046665;28;20470;-76
2021/11/01 05:37:07;;;;;;;17.40;2.67;;;10.20;99.90;;;;;;5046213;28;20022;-73
2021/11/01 05:39:33;;;;;;;11.70;2.63;;;10.10;99.90;;;;;;5044654;28;20045;-72
2021/11/01 05:42:03;;;;;;;2.72;1.42;;;10.10;99.90;;;;;;5045950;28;20037;-73
2021/11/01 05:44:28;;;;;;;19.98;2.20;;;10.10;99.90;;;;;;5045686;28;20036;-74
2021/11/01 05:47:05;;;;;;;18.50;2.63;;;10.00;99.90;;;;;;5045811;28;20033;-73
2021/11/01 05:49:31;;;;;;;5.05;2.28;;;10.00;99.90;;;;;;5046085;28;20033;-73
2021/11/01 05:51:57;;;;;;;5.30;2.30;;;10.00;99.90;;;;;;5046203;28;20068;-74
2021/11/01 05:54:33;;;;;;;15.85;1.92;;;10.00;99.90;;;;;;5044628;28;20029;-75
2021/11/01 06:07:44;;;;;;;20.70;4.03;;;9.90;99.90;;;;;;5045817;28;20520;-73
2021/11/01 06:10:38;;;;;;;11.23;3.25;;;9.90;99.90;;;;;;5045898;28;20030;-74
2021/11/01 06:15:49;;;;;;;7.35;3.20;;;9.80;99.90;;;;;;5045640;28;20040;-74
2021/11/01 06:18:16;;;;;;;9.10;2.97;;;9.80;99.90;;;;;;5045453;28;20056;-74
2021/11/01 06:20:42;;;;;;;7.78;3.05;;;9.80;99.90;;;;;;5045581;28;20393;-73
2021/11/01 06:23:07;;;;;;;3.60;2.33;;;9.80;99.90;;;;;;5044199;28;20045;-74
2021/11/01 06:25:33;;;;;;;12.80;3.88;;;9.80;99.90;;;;;;5045800;28;20388;-73
2021/11/01 06:27:59;;;;;;;13.48;3.38;;;9.80;99.90;;;;;;5045594;28;20053;-74
2021/11/01 06:30:39;;;;;;;4.93;2.40;;;9.70;99.90;;;;;;5045859;28;20096;-72
2021/11/01 06:52:27;;;;;;;11.43;2.45;;;9.60;99.90;;;;;;5065601;28;20040;-75
2021/11/01 07:16:22;;;;;;;12.38;2.67;;;9.70;99.90;;;;;;5065888;28;20048;-74
2021/11/01 08:21:50;;;;;;;3.13;1.35;;;9.90;99.90;;;;;;5016707;28;20048;-75
2021/11/01 08:35:12;;;;;;;4.95;2.17;;;10.40;99.90;;;;;;5067186;28;20060;-78
2021/11/01 08:43:38;;;;;;;18.35;2.42;;;10.70;99.90;;;;;;5005503;28;20549;-77
2021/11/01 09:21:16;;;;;;;;;;;11.50;99.90;;;;;;5072874;28;20086;-73
2021/11/01 09:26:41;;;;;;;2.53;1.23;;;11.50;99.90;;;;;;5080775;28;20138;-77
2021/11/01 09:42:51;;;;;;;13.77;3.22;;;11.60;99.90;;;;;;5051539;28;20027;-80
2021/11/01 09:45:19;;;;;;;4.82;2.25;;;11.60;99.90;;;;;;5057487;28;20028;-74
2021/11/01 09:47:47;;;;;;;11.80;3.63;;;11.80;99.90;;;;;;5056899;28;20042;-79
2021/11/01 09:50:18;;;;;;;8.15;2.83;;;11.90;99.90;;;;;;5061791;28;20021;-77
2021/11/01 09:53:00;;;;;;;12.18;2.60;;;12.20;99.90;;;;;;5061147;28;20029;-75
2021/11/01 10:00:58;;;;;;;3.95;1.98;;;12.80;99.90;;;;;;5063140;28;20036;-80
2021/11/01 10:03:43;;;;;;;10.15;3.45;;;12.90;99.90;;;;;;5063111;28;20029;-76
2021/11/01 10:06:17;;;;;;;6.47;2.55;;;12.90;99.90;;;;;;5057859;28;20370;-74
2021/11/01 10:08:53;;;;;;;7.60;2.93;;;12.80;99.90;;;;;;5057055;28;20060;-74
2021/11/01 10:11:23;;;;;;;4.90;2.58;;;12.80;99.90;;;;;;5056966;28;20093;-78
2021/11/01 10:13:55;;;;;;;4.18;2.42;;;12.80;99.90;;;;;;5051323;28;20029;-76
2021/11/01 10:19:38;;;;;;;8.07;2.67;;;12.80;99.90;;;;;;5065434;28;20044;-77
2021/11/01 10:22:27;;;;;;;8.00;3.33;;;12.90;99.90;;;;;;5043734;28;20033;-78
2021/11/01 10:24:55;;;;;;;10.00;2.97;;;12.90;99.90;;;;;;5045067;28;20458;-73
2021/11/01 10:27:40;;;;;;;6.10;2.17;;;13.00;99.90;;;;;;5053805;28;20117;-78
2021/11/01 10:30:13;;;;;;;8.15;3.47;;;13.00;99.90;;;;;;5049404;28;20755;-74
2021/11/01 10:32:46;;;;;;;6.90;2.50;;;13.10;99.90;;;;;;5053541;28;20025;-74
2021/11/01 10:35:19;;;;;;;13.52;2.78;;;13.20;99.90;;;;;;5058152;28;20037;-79
2021/11/01 10:41:10;;;;;;;9.07;2.72;;;13.50;99.90;;;;;;5065292;28;20059;-79
2021/11/01 10:58:22;;;;;;;7.13;3.03;;;13.40;99.90;;;;;;5057195;28;20048;-75
2021/11/01 11:17:38;;;;;;;4.68;2.17;;;13.20;99.90;;;;;;5074062;28;20289;-75
2021/11/01 11:20:44;;;;;;;7.07;2.25;;;13.20;99.90;;;;;;5063343;28;20025;-81
2021/11/01 11:42:53;;;;;;;6.28;2.75;;;13.50;99.90;;;;;;5044274;28;20063;-79
2021/11/01 11:51:11;;;;;;;4.65;2.10;;;13.10;99.90;;;;;;5011099;28;20037;-76
2021/11/01 11:53:57;;;;;;;4.03;2.13;;;13.10;99.90;;;;;;5055445;28;20043;-77
2021/11/01 11:56:33;;;;;;;5.55;2.10;;;13.10;99.90;;;;;;5063842;28;20029;-81
2021/11/01 11:59:00;;;;;;;9.18;2.13;;;13.10;99.90;;;;;;5062232;28;20112;-74
2021/11/01 12:01:31;;;;;;;4.53;2.35;;;13.40;99.90;;;;;;5063416;28;20026;-75
2021/11/01 12:04:20;;;;;;;9.63;2.28;;;13.50;99.90;;;;;;5062637;28;20021;-73
2021/11/01 12:07:04;;;;;;;9.30;3.00;;;13.50;99.90;;;;;;5063457;28;20029;-77
2021/11/01 12:09:51;;;;;;;3.60;2.13;;;13.40;99.90;;;;;;5063648;28;20502;-76
2021/11/01 12:17:52;;;;;;;4.13;2.38;;;13.90;99.90;;;;;;5043692;28;20068;-77
2021/11/01 12:20:21;;;;;;;6.82;2.38;;;14.20;99.90;;;;;;5058653;28;20033;-77
2021/11/01 12:22:50;;;;;;;12.70;2.00;;;14.20;99.90;;;;;;5043143;28;20056;-76
2021/11/01 12:25:18;;;;;;;5.25;2.10;;;14.10;99.90;;;;;;5043694;28;20026;-78
2021/11/01 12:27:59;;;;;;;3.58;2.22;;;13.90;99.90;;;;;;5043730;28;20045;-76
2021/11/01 12:30:32;;;;;;;2.65;1.45;;;14.00;99.90;;;;;;5042650;28;20037;-78
2021/11/01 12:32:58;;;;;;;3.05;1.42;;;14.20;99.90;;;;;;5047038;28;20035;-73
2021/11/01 12:35:29;;;;;;;3.95;1.88;;;14.30;99.90;;;;;;5049275;28;20045;-73
2021/11/01 12:38:02;;;;;;;3.35;1.30;;;14.50;99.90;;;;;;5046855;28;20036;-75
2021/11/01 12:40:44;;;;;;;6.97;1.88;;;14.30;99.90;;;;;;5047178;28;20021;-77
2021/11/01 12:48:56;;;;;;;3.13;1.80;;;13.90;99.90;;;;;;5067006;28;20031;-77
2021/11/01 12:59:40;;;;;;;5.32;2.28;;;13.70;99.90;;;;;;5066957;28;20040;-78
2021/11/01 13:02:09;;;;;;;6.47;1.70;;;14.20;99.90;;;;;;5066626;28;20374;-75
2021/11/01 13:04:38;;;;;;;6.32;1.55;;;14.70;99.90;;;;;;5065331;28;20474;-75
2021/11/01 13:09:53;;;;;;;3.65;1.65;;;14.70;99.90;;;;;;5066834;28;20036;-72
2021/11/01 13:20:21;;;;;;;8.18;2.42;;;13.70;99.90;;;;;;5066776;28;20052;-78
2021/11/01 13:22:51;;;;;;;7.60;1.73;;;14.00;99.90;;;;;;5062775;28;20468;-74
2021/11/01 13:38:50;;;;;;;4.80;2.55;;;16.90;99.90;;;;;;5063177;28;20097;-75
2021/11/01 13:41:33;;;;;;;15.20;1.88;;;17.30;99.90;;;;;;5075766;28;20036;-79
2021/11/01 13:44:26;;;;;;;6.47;2.58;;;17.50;99.90;;;;;;5064355;28;20032;-76
2021/11/01 13:46:58;;;;;;;2.45;1.45;;;17.30;99.90;;;;;;5065840;28;20029;-77
2021/11/01 13:49:29;;;;;;;5.22;2.42;;;17.40;99.90;;;;;;5064416;28;20045;-77
2021/11/01 13:52:10;;;;;;;2.80;1.77;;;17.50;99.90;;;;;;5065673;28;20082;-77
2021/11/01 13:54:49;;;;;;;2.72;1.45;;;17.00;99.90;;;;;;5066039;28;20105;-76
2021/11/01 13:57:19;;;;;;;1.80;1.50;;;16.50;99.90;;;;;;5066026;28;20108;-77
2021/11/01 14:02:48;;;;;;;4.95;1.70;;;15.50;99.90;;;;;;5045724;28;20095;-77
2021/11/01 14:13:48;;;;;;;9.25;1.92;;;16.20;99.90;;;;;;5054552;28;20124;-80
2021/11/01 14:16:26;;;;;;;2.55;1.83;;;16.60;99.90;;;;;;5064420;28;20048;-83
2021/11/01 15:06:18;;;;;;;2.05;1.15;;;16.80;99.90;;;;;;5060344;28;20063;-75
2021/11/01 15:28:22;;;;;;;4.18;1.60;;;13.80;99.90;;;;;;5064364;28;20531;-77
2021/11/01 15:39:00;;;;;;;5.72;2.35;;;13.20;99.90;;;;;;5064080;28;20063;-75
2021/11/01 16:19:40;;;;;;;8.02;2.70;;;11.60;99.90;;;;;;5067537;28;20032;-79
2021/11/01 16:22:08;;;;;;;6.72;3.33;;;11.60;99.90;;;;;;5066269;28;20124;-80
2021/11/01 16:24:52;;;;;;;8.00;3.50;;;11.50;99.90;;;;;;5067924;28;20031;-77
2021/11/01 16:27:20;;;;;;;10.48;3.85;;;11.40;99.90;;;;;;5067929;28;20123;-79
2021/11/01 16:29:51;;;;;;;5.85;2.67;;;11.40;99.90;;;;;;5067882;28;20033;-77
2021/11/01 16:32:24;;;;;;;6.68;3.10;;;11.30;99.90;;;;;;5064127;28;20032;-77
2021/11/01 16:34:55;;;;;;;7.25;2.58;;;11.30;99.90;;;;;;5057101;28;20037;-77
2021/11/01 16:37:28;;;;;;;4.10;2.13;;;11.20;99.90;;;;;;5046119;28;20118;-77
2021/11/01 16:39:59;;;;;;;12.23;2.50;;;11.20;99.90;;;;;;5047686;28;20033;-78
2021/11/01 16:42:35;;;;;;;3.97;1.85;;;11.10;99.90;;;;;;5046383;28;20070;-77
2021/11/01 16:48:04;;;;;;;2.10;1.42;;;11.10;99.90;;;;;;5054989;28;20047;-78
2021/11/01 16:50:30;;;;;;;5.00;1.65;;;11.00;99.90;;;;;;5053554;28;20029;-79
2021/11/01 16:52:56;;;;;;;3.60;1.58;;;10.90;99.90;;;;;;5078883;28;20077;-79
2021/11/01 16:55:29;;;;;;;8.50;2.75;;;10.90;99.90;;;;;;5068700;28;20509;-78
2021/11/01 16:58:01;;;;;;;4.55;2.05;;;10.80;99.90;;;;;;5066976;28;20127;-78
2021/11/01 17:03:27;;;;;;;3.88;1.88;;;10.80;99.90;;;;;;5066877;28;20099;-78
2021/11/01 17:06:05;;;;;;;4.43;2.28;;;10.70;99.90;;;;;;5067938;28;20478;-75
2021/11/01 17:21:44;;;;;;;5.93;2.22;;;10.50;99.90;;;;;;5046650;28;20052;-78
2021/11/01 17:30:13;;;;;;;1.63;1.40;;;10.40;99.90;;;;;;5004929;28;20033;-80
2021/11/01 18:39:23;;;;;;;7.85;3.47;;;9.40;99.90;;;;;;5045489;28;20037;-81
2021/11/01 18:42:04;;;;;;;7.45;3.42;;;9.30;99.90;;;;;;5043998;28;20033;-80
2021/11/01 18:44:58;;;;;;;5.78;2.65;;;9.30;99.90;;;;;;5044904;28;20028;-78
2021/11/01 18:53:14;;;;;;;6.72;2.33;;;9.30;99.90;;;;;;5065206;28;20035;-79
2021/11/01 18:55:43;;;;;;;8.87;1.70;;;9.40;99.90;;;;;;5057880;28;20419;-80
2021/11/01 18:58:15;;;;;;;2.95;1.58;;;9.30;99.90;;;;;;5047048;28;20033;-78
2021/11/01 19:00:43;;;;;;;5.30;1.90;;;9.40;99.90;;;;;;5043991;28;20036;-78
2021/11/01 19:03:14;;;;;;;7.45;1.83;;;9.40;99.90;;;;;;5061890;28;20033;-78
2021/11/01 19:05:58;;;;;;;5.32;1.80;;;9.40;99.90;;;;;;5064130;28;20029;-79
2021/11/01 19:08:44;;;;;;;4.50;2.90;;;9.40;99.90;;;;;;5064814;28;20025;-80
2021/11/01 20:05:05;;;;;;;2.55;1.50;;;9.10;99.90;;;;;;5044598;28;20036;-75
2021/11/01 20:08:13;;;;;;;5.22;2.53;;;9.10;99.90;;;;;;5043858;28;20029;-74
2021/11/01 21:26:23;;;;;;;2.55;1.40;;;8.50;99.90;;;;;;5064328;28;20056;-77
2021/11/01 21:28:50;;;;;;;1.77;1.15;;;8.50;99.90;;;;;;5062725;28;20060;-77
2021/11/01 21:31:17;;;;;;;1.65;1.20;;;8.50;99.90;;;;;;5064612;28;20097;-76
2021/11/01 21:33:46;;;;;;;3.38;1.50;;;8.50;99.90;;;;;;5061339;28;20017;-77
2021/11/01 21:36:16;;;;;;;10.77;1.80;;;8.60;99.90;;;;;;5065702;28;20469;-76
2021/11/01 21:38:47;;;;;;;3.03;1.63;;;8.50;99.90;;;;;;5062743;28;20052;-78
2021/11/01 21:41:13;;;;;;;4.57;1.42;;;8.60;99.90;;;;;;5065880;28;20025;-77
2021/11/01 21:43:39;;;;;;;7.03;1.83;;;8.60;99.90;;;;;;5064458;28;20036;-74
2021/11/01 21:46:04;;;;;;;6.57;1.75;;;8.70;99.90;;;;;;5064230;28;20013;-76
2021/11/01 21:48:30;;;;;;;3.17;1.27;;;8.70;99.90;;;;;;5065534;28;20021;-77
2021/11/01 21:50:57;;;;;;;2.67;1.27;;;8.80;99.90;;;;;;5065622;28;20028;-77
2021/11/01 21:53:33;;;;;;;12.50;1.40;;;8.80;99.90;;;;;;5062540;28;20017;-78
2021/11/01 21:56:01;;;;;;;4.75;1.20;;;8.90;99.90;;;;;;5065187;28;20071;-76
2021/11/01 22:17:30;;;;;;;3.20;1.45;;;9.20;99.90;;;;;;5064750;28;20035;-77
2021/11/01 22:20:06;;;;;;;5.35;2.05;;;9.20;99.90;;;;;;5064793;28;20041;-77
2021/11/01 22:22:47;;;;;;;4.82;1.52;;;9.20;99.90;;;;;;5064904;28;20029;-76
2021/11/01 22:25:27;;;;;;;8.65;2.40;;;9.30;99.90;;;;;;5055038;28;20393;-78
2021/11/01 22:33:39;;;;;;;4.85;1.40;;;9.40;99.90;;;;;;5060945;28;20032;-77
2021/11/01 22:39:07;;;;;;;;;;;9.40;99.90;;;;;;5060847;28;20036;-78
2021/11/01 22:44:26;;;;;;;4.10;1.40;;;9.50;99.90;;;;;;5064032;28;20029;-76
2021/11/01 22:47:20;;;;;;;2.15;1.23;;;9.40;99.90;;;;;;5063058;28;20413;-76
2021/11/01 22:57:59;;;;;;;2.50;1.38;;;9.40;99.90;;;;;;5061444;28;20028;-77
2021/11/01 23:00:39;;;;;;;2.38;1.13;;;9.40;99.90;;;;;;5060320;28;20057;-77
2021/11/01 23:03:18;;;;;;;1.73;1.02;;;9.50;99.90;;;;;;5063057;28;20032;-76
2021/11/01 23:33:10;;;;;;;;;;;9.40;99.90;;;;;;5064988;28;20359;-77
2021/11/01 23:35:36;;;;;;;4.20;1.02;;;9.30;99.90;;;;;;5062880;28;20349;-76
2021/11/01 23:38:02;;;;;;;1.35;0.98;;;9.30;99.90;;;;;;5064386;28;20037;-76
2021/11/01 23:40:27;;;;;;;3.35;1.63;;;9.30;99.90;;;;;;5064189;28;20048;-76
2021/11/01 23:42:53;;;;;;;7.50;1.25;;;9.40;99.90;;;;;;5062633;28;20025;-77
2021/11/01 23:45:19;;;;;;;1.92;1.35;;;9.30;99.90;;;;;;5064330;28;20032;-76
2021/11/01 23:47:45;;;;;;;5.97;1.25;;;9.30;99.90;;;;;;5063152;28;20043;-77
2021/11/01 23:50:10;;;;;;;9.38;1.63;;;9.40;99.90;;;;;;5064310;28;20040;-76
2021/11/01 23:52:55;;;;;;;5.30;1.50;;;9.30;99.90;;;;;;5063915;28;20024;-77
2021/11/01 23:55:20;;;;;;;2.13;1.15;;;9.30;99.90;;;;;;5064021;28;20112;-77
2021/11/01 23:57:46;;;;;;;6.32;1.48;;;9.30;99.90;;;;;;5064134;28;20381;-77
